sensor_id;sensor_type;location;lat;lon;timestamp;pressure;altitude;pressure_sealevel;temperature;humidity
16821;BME280;8527;49.740;6.604;2023-05-07T00:02:16;99671.91;;;14.41;87.75
16821;BME280;8527;49.740;6.604;2023-05-07T00:07:15;99676.41;;;14.41;86.94
16821;BME280;8527;49.740;6.604;2023-05-07T00:12:13;99681.59;;;14.20;88.42
16821;BME280;8527;49.740;6.604;2023-05-07T00:17:11;99685.25;;;14.41;86.49
16821;BME280;8527;49.740;6.604;2023-05-07T00:22:12;99672.47;;;14.37;87.36
16821;BME280;8527;49.740;6.604;2023-05-07T00:27:13;99664.06;;;14.40;87.32
16821;BME280;8527;49.740;6.604;2023-05-07T00:32:11;99667.69;;;14.25;87.51
16821;BME280;8527;49.740;6.604;2023-05-07T00:37:15;99667.00;;;14.16;88.32
16821;BME280;8527;49.740;6.604;2023-05-07T00:42:13;99657.94;;;14.11;87.09
16821;BME280;8527;49.740;6.604;2023-05-07T00:47:12;99655.59;;;14.01;87.77
16821;BME280;8527;49.740;6.604;2023-05-07T00:52:16;99664.31;;;13.88;87.89
16821;BME280;8527;49.740;6.604;2023-05-07T00:57:19;99656.25;;;13.81;89.10
16821;BME280;8527;49.740;6.604;2023-05-07T01:02:18;99658.19;;;13.66;88.04
16821;BME280;8527;49.740;6.604;2023-05-07T01:07:20;99651.06;;;13.73;89.07
16821;BME280;8527;49.740;6.604;2023-05-07T01:12:22;99660.41;;;13.62;90.47
16821;BME280;8527;49.740;6.604;2023-05-07T01:17:21;99652.53;;;13.54;89.90
16821;BME280;8527;49.740;6.604;2023-05-07T01:22:30;99649.75;;;13.62;88.47
16821;BME280;8527;49.740;6.604;2023-05-07T01:27:31;99654.00;;;13.41;89.23
16821;BME280;8527;49.740;6.604;2023-05-07T01:32:33;99656.97;;;13.46;87.59
16821;BME280;8527;49.740;6.604;2023-05-07T01:37:37;99657.25;;;13.36;88.80
16821;BME280;8527;49.740;6.604;2023-05-07T01:42:37;99651.66;;;13.31;88.73
16821;BME280;8527;49.740;6.604;2023-05-07T01:47:36;99648.72;;;13.26;88.51
16821;BME280;8527;49.740;6.604;2023-05-07T01:52:49;99649.03;;;13.16;88.32
16821;BME280;8527;49.740;6.604;2023-05-07T01:57:48;99658.88;;;13.16;88.56
16821;BME280;8527;49.740;6.604;2023-05-07T02:02:47;99658.81;;;13.09;88.65
16821;BME280;8527;49.740;6.604;2023-05-07T02:07:48;99653.75;;;12.99;89.72
16821;BME280;8527;49.740;6.604;2023-05-07T02:12:49;99659.47;;;12.81;91.25
16821;BME280;8527;49.740;6.604;2023-05-07T02:18:03;99656.63;;;12.98;89.79
16821;BME280;8527;49.740;6.604;2023-05-07T02:23:07;99662.13;;;12.96;89.23
16821;BME280;8527;49.740;6.604;2023-05-07T02:28:08;99658.59;;;12.74;90.07
16821;BME280;8527;49.740;6.604;2023-05-07T02:33:13;99655.63;;;12.84;90.46
16821;BME280;8527;49.740;6.604;2023-05-07T02:38:17;99658.84;;;12.64;91.67
16821;BME280;8527;49.740;6.604;2023-05-07T02:43:16;99656.47;;;12.54;91.83
16821;BME280;8527;49.740;6.604;2023-05-07T02:48:14;99665.47;;;12.68;90.66
16821;BME280;8527;49.740;6.604;2023-05-07T02:53:15;99660.53;;;12.65;90.78
16821;BME280;8527;49.740;6.604;2023-05-07T02:58:16;99665.75;;;12.58;91.80
16821;BME280;8527;49.740;6.604;2023-05-07T03:03:15;99656.09;;;12.57;90.76
16821;BME280;8527;49.740;6.604;2023-05-07T03:08:13;99656.66;;;12.37;91.66
16821;BME280;8527;49.740;6.604;2023-05-07T03:13:12;99662.78;;;12.38;91.27
16821;BME280;8527;49.740;6.604;2023-05-07T03:18:16;99652.25;;;12.30;91.20
16821;BME280;8527;49.740;6.604;2023-05-07T03:23:14;99650.59;;;12.29;91.52
16821;BME280;8527;49.740;6.604;2023-05-07T03:28:15;99642.22;;;12.17;91.98
16821;BME280;8527;49.740;6.604;2023-05-07T03:33:19;99651.31;;;12.07;92.27
16821;BME280;8527;49.740;6.604;2023-05-07T03:38:19;99642.13;;;12.10;93.46
16821;BME280;8527;49.740;6.604;2023-05-07T03:43:20;99638.69;;;12.01;90.66
16821;BME280;8527;49.740;6.604;2023-05-07T03:48:21;99640.69;;;12.07;93.17
16821;BME280;8527;49.740;6.604;2023-05-07T03:53:21;99642.88;;;12.04;94.47
16821;BME280;8527;49.740;6.604;2023-05-07T03:58:26;99647.16;;;12.05;94.86
16821;BME280;8527;49.740;6.604;2023-05-07T04:03:27;99651.22;;;12.16;94.46
16821;BME280;8527;49.740;6.604;2023-05-07T04:08:29;99653.34;;;12.20;95.04
16821;BME280;8527;49.740;6.604;2023-05-07T04:13:28;99654.66;;;12.01;98.26
16821;BME280;8527;49.740;6.604;2023-05-07T04:18:30;99647.75;;;12.15;96.79
16821;BME280;8527;49.740;6.604;2023-05-07T04:23:28;99654.50;;;12.18;95.07
16821;BME280;8527;49.740;6.604;2023-05-07T04:28:31;99661.94;;;12.22;94.83
16821;BME280;8527;49.740;6.604;2023-05-07T04:33:32;99655.72;;;12.30;93.57
16821;BME280;8527;49.740;6.604;2023-05-07T04:38:31;99658.03;;;11.95;100.00
16821;BME280;8527;49.740;6.604;2023-05-07T04:43:33;99651.59;;;12.13;100.00
16821;BME280;8527;49.740;6.604;2023-05-07T04:48:36;99651.59;;;12.13;100.00
16821;BME280;8527;49.740;6.604;2023-05-07T04:53:38;99661.31;;;12.50;98.75
16821;BME280;8527;49.740;6.604;2023-05-07T04:58:39;99658.38;;;12.90;95.67
16821;BME280;8527;49.740;6.604;2023-05-07T05:03:43;99653.81;;;13.21;92.88
16821;BME280;8527;49.740;6.604;2023-05-07T05:08:41;99670.16;;;13.55;91.98
16821;BME280;8527;49.740;6.604;2023-05-07T05:13:45;99670.09;;;13.70;90.28
16821;BME280;8527;49.740;6.604;2023-05-07T05:18:46;99676.25;;;13.92;89.62
16821;BME280;8527;49.740;6.604;2023-05-07T05:23:49;99671.00;;;14.05;89.12
16821;BME280;8527;49.740;6.604;2023-05-07T05:28:51;99666.88;;;14.03;89.37
16821;BME280;8527;49.740;6.604;2023-05-07T05:33:52;99673.97;;;13.67;90.51
16821;BME280;8527;49.740;6.604;2023-05-07T05:38:56;99680.81;;;13.98;89.96
16821;BME280;8527;49.740;6.604;2023-05-07T05:43:55;99682.41;;;14.21;89.39
16821;BME280;8527;49.740;6.604;2023-05-07T05:48:58;99681.94;;;14.74;87.12
16821;BME280;8527;49.740;6.604;2023-05-07T05:53:57;99677.19;;;15.18;83.94
16821;BME280;8527;49.740;6.604;2023-05-07T05:58:55;99677.31;;;15.72;83.33
16821;BME280;8527;49.740;6.604;2023-05-07T06:03:56;99685.31;;;15.66;82.62
16821;BME280;8527;49.740;6.604;2023-05-07T06:08:55;99693.91;;;15.34;83.25
16821;BME280;8527;49.740;6.604;2023-05-07T06:13:53;99682.69;;;16.40;80.20
16821;BME280;8527;49.740;6.604;2023-05-07T06:18:51;99691.47;;;15.46;82.43
16821;BME280;8527;49.740;6.604;2023-05-07T06:23:55;99701.75;;;15.49;82.58
16821;BME280;8527;49.740;6.604;2023-05-07T06:28:53;99713.00;;;15.31;85.51
16821;BME280;8527;49.740;6.604;2023-05-07T06:33:52;99706.44;;;15.33;84.29
16821;BME280;8527;49.740;6.604;2023-05-07T06:38:53;99722.94;;;15.44;83.96
16821;BME280;8527;49.740;6.604;2023-05-07T06:43:51;99723.19;;;15.76;83.12
16821;BME280;8527;49.740;6.604;2023-05-07T06:48:50;99727.31;;;15.72;82.92
16821;BME280;8527;49.740;6.604;2023-05-07T06:53:48;99716.63;;;15.72;83.17
16821;BME280;8527;49.740;6.604;2023-05-07T06:58:49;99721.84;;;16.21;81.02
16821;BME280;8527;49.740;6.604;2023-05-07T07:03:47;99718.50;;;16.52;80.15
16821;BME280;8527;49.740;6.604;2023-05-07T07:08:46;99712.88;;;16.74;79.37
16821;BME280;8527;49.740;6.604;2023-05-07T07:13:45;99718.91;;;16.49;79.63
16821;BME280;8527;49.740;6.604;2023-05-07T07:18:46;99717.63;;;17.38;77.61
16821;BME280;8527;49.740;6.604;2023-05-07T07:23:44;99703.69;;;17.22;77.19
16821;BME280;8527;49.740;6.604;2023-05-07T07:28:43;99701.56;;;17.70;76.04
16821;BME280;8527;49.740;6.604;2023-05-07T07:33:41;99706.22;;;17.49;75.63
16821;BME280;8527;49.740;6.604;2023-05-07T07:38:45;99704.56;;;17.48;76.50
16821;BME280;8527;49.740;6.604;2023-05-07T07:43:43;99710.50;;;17.57;74.93
16821;BME280;8527;49.740;6.604;2023-05-07T07:48:42;99701.09;;;18.05;75.01
16821;BME280;8527;49.740;6.604;2023-05-07T07:53:40;99707.78;;;18.47;72.44
16821;BME280;8527;49.740;6.604;2023-05-07T07:58:41;99711.03;;;18.05;73.88
16821;BME280;8527;49.740;6.604;2023-05-07T08:03:43;99708.97;;;18.25;73.69
16821;BME280;8527;49.740;6.604;2023-05-07T08:08:41;99709.06;;;17.86;75.55
16821;BME280;8527;49.740;6.604;2023-05-07T08:13:43;99715.53;;;18.55;72.79
16821;BME280;8527;49.740;6.604;2023-05-07T08:18:41;99707.06;;;18.33;73.12
16821;BME280;8527;49.740;6.604;2023-05-07T08:23:40;99714.59;;;18.68;72.97
16821;BME280;8527;49.740;6.604;2023-05-07T08:28:38;99713.94;;;18.47;72.27
16821;BME280;8527;49.740;6.604;2023-05-07T08:33:45;99718.16;;;17.85;73.63
16821;BME280;8527;49.740;6.604;2023-05-07T08:38:43;99724.16;;;18.38;72.74
16821;BME280;8527;49.740;6.604;2023-05-07T08:43:48;99717.34;;;18.80;71.46
16821;BME280;8527;49.740;6.604;2023-05-07T08:48:51;99715.75;;;18.72;70.92
16821;BME280;8527;49.740;6.604;2023-05-07T08:53:50;99714.66;;;18.98;70.87
16821;BME280;8527;49.740;6.604;2023-05-07T08:58:51;99705.94;;;19.34;69.63
16821;BME280;8527;49.740;6.604;2023-05-07T09:03:54;99706.13;;;19.20;68.11
16821;BME280;8527;49.740;6.604;2023-05-07T09:08:53;99707.22;;;20.04;66.36
16821;BME280;8527;49.740;6.604;2023-05-07T09:13:54;99701.03;;;20.28;66.39
16821;BME280;8527;49.740;6.604;2023-05-07T09:18:58;99702.56;;;20.12;65.82
16821;BME280;8527;49.740;6.604;2023-05-07T09:23:56;99703.38;;;20.48;65.08
16821;BME280;8527;49.740;6.604;2023-05-07T09:28:55;99703.09;;;21.26;63.67
16821;BME280;8527;49.740;6.604;2023-05-07T09:33:58;99698.13;;;21.64;61.30
16821;BME280;8527;49.740;6.604;2023-05-07T09:38:59;99702.56;;;21.70;61.97
16821;BME280;8527;49.740;6.604;2023-05-07T09:43:58;99704.75;;;23.03;59.53
16821;BME280;8527;49.740;6.604;2023-05-07T09:49:03;99715.41;;;23.10;57.28
16821;BME280;8527;49.740;6.604;2023-05-07T09:54:24;99720.13;;;22.75;58.13
16821;BME280;8527;49.740;6.604;2023-05-07T09:59:23;99705.75;;;24.02;55.21
16821;BME280;8527;49.740;6.604;2023-05-07T10:04:25;99706.19;;;24.26;54.55
16821;BME280;8527;49.740;6.604;2023-05-07T10:09:26;99699.34;;;24.62;55.92
16821;BME280;8527;49.740;6.604;2023-05-07T10:14:31;99692.09;;;25.52;54.20
16821;BME280;8527;49.740;6.604;2023-05-07T10:19:32;99681.91;;;25.00;54.13
16821;BME280;8527;49.740;6.604;2023-05-07T10:24:33;99682.66;;;23.34;55.89
16821;BME280;8527;49.740;6.604;2023-05-07T10:29:37;99685.34;;;24.27;54.16
16821;BME280;8527;49.740;6.604;2023-05-07T10:34:43;99696.78;;;24.88;52.17
16821;BME280;8527;49.740;6.604;2023-05-07T10:39:46;99694.25;;;24.70;52.44
16821;BME280;8527;49.740;6.604;2023-05-07T10:44:45;99689.69;;;24.28;55.29
16821;BME280;8527;49.740;6.604;2023-05-07T10:55:24;99699.94;;;24.21;54.92
16821;BME280;8527;49.740;6.604;2023-05-07T11:00:41;99697.97;;;24.11;55.81
16821;BME280;8527;49.740;6.604;2023-05-07T11:05:39;99694.63;;;24.36;57.02
16821;BME280;8527;49.740;6.604;2023-05-07T11:10:54;99686.13;;;24.22;56.86
16821;BME280;8527;49.740;6.604;2023-05-07T11:15:56;99697.72;;;24.12;56.87
16821;BME280;8527;49.740;6.604;2023-05-07T11:20:56;99699.13;;;24.20;57.43
16821;BME280;8527;49.740;6.604;2023-05-07T11:26:02;99693.63;;;24.10;57.63
16821;BME280;8527;49.740;6.604;2023-05-07T11:31:04;99694.34;;;24.00;57.41
16821;BME280;8527;49.740;6.604;2023-05-07T11:36:04;99689.69;;;23.90;58.29
16821;BME280;8527;49.740;6.604;2023-05-07T11:41:05;99689.28;;;24.09;57.58
16821;BME280;8527;49.740;6.604;2023-05-07T11:46:09;99690.34;;;24.51;56.61
16821;BME280;8527;49.740;6.604;2023-05-07T11:51:09;99678.91;;;24.43;54.97
16821;BME280;8527;49.740;6.604;2023-05-07T11:56:15;99688.75;;;24.12;54.09
16821;BME280;8527;49.740;6.604;2023-05-07T12:01:14;99683.88;;;24.57;54.04
16821;BME280;8527;49.740;6.604;2023-05-07T12:06:17;99681.44;;;24.55;53.75
16821;BME280;8527;49.740;6.604;2023-05-07T12:11:23;99686.22;;;24.96;53.38
16821;BME280;8527;49.740;6.604;2023-05-07T12:16:23;99699.25;;;24.89;54.16
16821;BME280;8527;49.740;6.604;2023-05-07T12:21:22;99687.97;;;25.23;52.51
16821;BME280;8527;49.740;6.604;2023-05-07T12:26:24;99690.25;;;24.83;52.52
16821;BME280;8527;49.740;6.604;2023-05-07T12:31:22;99686.81;;;25.04;52.06
16821;BME280;8527;49.740;6.604;2023-05-07T12:36:23;99685.53;;;25.37;52.03
16821;BME280;8527;49.740;6.604;2023-05-07T12:41:24;99683.59;;;25.33;51.95
16821;BME280;8527;49.740;6.604;2023-05-07T12:46:24;99677.91;;;25.29;50.64
16821;BME280;8527;49.740;6.604;2023-05-07T12:51:27;99687.97;;;25.39;50.63
16821;BME280;8527;49.740;6.604;2023-05-07T12:56:30;99680.31;;;25.20;50.64
16821;BME280;8527;49.740;6.604;2023-05-07T13:01:29;99685.69;;;24.94;51.85
16821;BME280;8527;49.740;6.604;2023-05-07T13:06:29;99678.00;;;24.76;51.44
16821;BME280;8527;49.740;6.604;2023-05-07T13:11:30;99684.75;;;24.73;52.12
16821;BME280;8527;49.740;6.604;2023-05-07T13:16:32;99681.50;;;24.71;52.29
16821;BME280;8527;49.740;6.604;2023-05-07T13:21:30;99689.81;;;24.49;53.01
16821;BME280;8527;49.740;6.604;2023-05-07T13:26:32;99694.97;;;24.50;51.54
16821;BME280;8527;49.740;6.604;2023-05-07T13:31:33;99682.75;;;24.48;52.23
16821;BME280;8527;49.740;6.604;2023-05-07T13:36:31;99687.66;;;24.56;50.49
16821;BME280;8527;49.740;6.604;2023-05-07T13:41:35;99691.50;;;24.65;52.16
16821;BME280;8527;49.740;6.604;2023-05-07T13:46:33;99685.59;;;24.73;53.26
16821;BME280;8527;49.740;6.604;2023-05-07T13:51:31;99688.25;;;24.68;52.84
16821;BME280;8527;49.740;6.604;2023-05-07T13:56:30;99686.25;;;24.43;53.42
16821;BME280;8527;49.740;6.604;2023-05-07T14:01:31;99683.84;;;24.52;53.86
16821;BME280;8527;49.740;6.604;2023-05-07T14:06:32;99681.63;;;24.43;54.29
16821;BME280;8527;49.740;6.604;2023-05-07T14:11:34;99671.38;;;24.51;54.29
16821;BME280;8527;49.740;6.604;2023-05-07T14:16:34;99676.44;;;24.95;54.29
16821;BME280;8527;49.740;6.604;2023-05-07T14:21:33;99677.00;;;24.92;53.71
16821;BME280;8527;49.740;6.604;2023-05-07T14:26:33;99678.59;;;24.83;54.50
16821;BME280;8527;49.740;6.604;2023-05-07T14:31:31;99678.06;;;24.86;54.35
16821;BME280;8527;49.740;6.604;2023-05-07T14:36:33;99683.00;;;25.05;54.47
16821;BME280;8527;49.740;6.604;2023-05-07T14:41:36;99684.41;;;25.18;53.80
16821;BME280;8527;49.740;6.604;2023-05-07T14:46:34;99693.03;;;24.99;54.33
16821;BME280;8527;49.740;6.604;2023-05-07T14:51:35;99686.47;;;24.84;54.23
16821;BME280;8527;49.740;6.604;2023-05-07T14:56:36;99687.06;;;24.97;54.38
16821;BME280;8527;49.740;6.604;2023-05-07T15:01:35;99679.53;;;25.20;53.09
16821;BME280;8527;49.740;6.604;2023-05-07T15:06:38;99697.66;;;25.09;52.71
16821;BME280;8527;49.740;6.604;2023-05-07T15:11:36;99693.56;;;25.01;53.08
16821;BME280;8527;49.740;6.604;2023-05-07T15:16:35;99695.16;;;24.81;52.99
16821;BME280;8527;49.740;6.604;2023-05-07T15:21:33;99696.28;;;24.96;52.55
16821;BME280;8527;49.740;6.604;2023-05-07T15:26:37;99704.69;;;24.94;51.56
16821;BME280;8527;49.740;6.604;2023-05-07T15:31:35;99706.63;;;25.04;52.05
16821;BME280;8527;49.740;6.604;2023-05-07T15:36:36;99715.88;;;25.03;51.30
16821;BME280;8527;49.740;6.604;2023-05-07T15:41:37;99714.31;;;24.69;52.14
16821;BME280;8527;49.740;6.604;2023-05-07T15:46:35;99720.44;;;24.49;53.49
16821;BME280;8527;49.740;6.604;2023-05-07T15:51:36;99716.94;;;24.54;53.34
16821;BME280;8527;49.740;6.604;2023-05-07T15:56:37;99713.63;;;24.41;54.58
16821;BME280;8527;49.740;6.604;2023-05-07T16:01:35;99724.63;;;24.24;56.14
16821;BME280;8527;49.740;6.604;2023-05-07T16:06:35;99724.13;;;24.27;55.81
16821;BME280;8527;49.740;6.604;2023-05-07T16:11:36;99736.22;;;23.87;58.02
16821;BME280;8527;49.740;6.604;2023-05-07T16:16:38;99732.28;;;23.67;58.80
16821;BME280;8527;49.740;6.604;2023-05-07T16:21:36;99733.13;;;23.45;58.93
16821;BME280;8527;49.740;6.604;2023-05-07T16:26:37;99724.81;;;23.52;58.71
16821;BME280;8527;49.740;6.604;2023-05-07T16:31:36;99729.81;;;23.38;59.64
16821;BME280;8527;49.740;6.604;2023-05-07T16:36:34;99730.84;;;23.32;59.31
16821;BME280;8527;49.740;6.604;2023-05-07T16:41:38;99739.06;;;23.42;59.15
16821;BME280;8527;49.740;6.604;2023-05-07T16:46:37;99747.25;;;23.75;58.58
16821;BME280;8527;49.740;6.604;2023-05-07T16:51:38;99750.72;;;23.70;57.76
16821;BME280;8527;49.740;6.604;2023-05-07T16:56:40;99746.13;;;23.43;58.41
16821;BME280;8527;49.740;6.604;2023-05-07T17:01:41;99745.69;;;23.52;59.16
16821;BME280;8527;49.740;6.604;2023-05-07T17:06:40;99753.16;;;23.44;59.11
16821;BME280;8527;49.740;6.604;2023-05-07T17:11:42;99750.75;;;23.26;59.14
16821;BME280;8527;49.740;6.604;2023-05-07T17:16:40;99752.09;;;23.01;61.37
16821;BME280;8527;49.740;6.604;2023-05-07T17:21:39;99753.31;;;22.71;60.90
16821;BME280;8527;49.740;6.604;2023-05-07T17:26:37;99753.78;;;22.85;61.13
16821;BME280;8527;49.740;6.604;2023-05-07T17:31:39;99758.88;;;22.81;61.88
16821;BME280;8527;49.740;6.604;2023-05-07T17:36:38;99755.53;;;22.74;61.70
16821;BME280;8527;49.740;6.604;2023-05-07T17:41:36;99755.81;;;22.21;62.65
16821;BME280;8527;49.740;6.604;2023-05-07T17:46:35;99769.81;;;22.18;63.44
16821;BME280;8527;49.740;6.604;2023-05-07T17:51:36;99785.16;;;20.65;62.63
16821;BME280;8527;49.740;6.604;2023-05-07T17:56:36;99795.84;;;19.94;65.15
16821;BME280;8527;49.740;6.604;2023-05-07T18:01:35;99807.66;;;19.25;69.30
16821;BME280;8527;49.740;6.604;2023-05-07T18:06:36;99829.75;;;18.64;73.57
16821;BME280;8527;49.740;6.604;2023-05-07T18:11:36;99846.63;;;17.75;80.57
16821;BME280;8527;49.740;6.604;2023-05-07T18:16:34;99853.09;;;17.54;82.30
16821;BME280;8527;49.740;6.604;2023-05-07T18:21:35;99860.09;;;18.00;81.69
16821;BME280;8527;49.740;6.604;2023-05-07T18:26:34;99867.97;;;17.50;86.89
16821;BME280;8527;49.740;6.604;2023-05-07T18:31:32;99877.97;;;16.95;93.94
16821;BME280;8527;49.740;6.604;2023-05-07T18:36:33;99891.56;;;16.73;98.37
16821;BME280;8527;49.740;6.604;2023-05-07T18:41:34;99887.84;;;16.88;100.00
16821;BME280;8527;49.740;6.604;2023-05-07T18:46:35;99903.94;;;17.08;100.00
16821;BME280;8527;49.740;6.604;2023-05-07T18:51:33;99907.44;;;16.95;100.00
16821;BME280;8527;49.740;6.604;2023-05-07T18:56:34;99910.50;;;16.58;100.00
16821;BME280;8527;49.740;6.604;2023-05-07T19:01:33;99915.03;;;16.51;100.00
16821;BME280;8527;49.740;6.604;2023-05-07T19:06:32;99917.28;;;16.41;100.00
16821;BME280;8527;49.740;6.604;2023-05-07T19:11:30;99922.84;;;16.53;100.00
16821;BME280;8527;49.740;6.604;2023-05-07T19:16:31;99924.50;;;16.60;100.00
16821;BME280;8527;49.740;6.604;2023-05-07T19:21:29;99934.19;;;16.55;100.00
16821;BME280;8527;49.740;6.604;2023-05-07T19:26:28;99940.63;;;16.05;100.00
16821;BME280;8527;49.740;6.604;2023-05-07T19:31:26;99951.84;;;16.36;100.00
16821;BME280;8527;49.740;6.604;2023-05-07T19:36:28;99972.63;;;16.20;100.00
16821;BME280;8527;49.740;6.604;2023-05-07T19:41:28;99986.31;;;16.52;100.00
16821;BME280;8527;49.740;6.604;2023-05-07T19:46:27;99991.31;;;16.76;100.00
16821;BME280;8527;49.740;6.604;2023-05-07T19:51:28;99993.75;;;16.57;100.00
16821;BME280;8527;49.740;6.604;2023-05-07T19:56:30;99992.78;;;16.85;100.00
16821;BME280;8527;49.740;6.604;2023-05-07T20:01:28;99999.75;;;16.72;99.92
16821;BME280;8527;49.740;6.604;2023-05-07T20:06:29;100001.41;;;16.73;99.82
16821;BME280;8527;49.740;6.604;2023-05-07T20:11:28;100014.53;;;16.55;99.23
16821;BME280;8527;49.740;6.604;2023-05-07T20:16:26;100007.34;;;16.55;99.37
16821;BME280;8527;49.740;6.604;2023-05-07T20:21:24;100010.19;;;16.47;100.00
16821;BME280;8527;49.740;6.604;2023-05-07T20:26:26;100013.13;;;16.59;99.61
16821;BME280;8527;49.740;6.604;2023-05-07T20:31:24;100003.63;;;16.50;98.89
16821;BME280;8527;49.740;6.604;2023-05-07T20:36:23;100009.13;;;16.41;99.15
16821;BME280;8527;49.740;6.604;2023-05-07T20:41:22;100020.13;;;16.53;98.67
16821;BME280;8527;49.740;6.604;2023-05-07T20:46:24;100016.94;;;16.29;98.87
16821;BME280;8527;49.740;6.604;2023-05-07T20:51:24;100028.06;;;16.33;99.87
16821;BME280;8527;49.740;6.604;2023-05-07T20:56:27;100027.50;;;16.44;99.32
16821;BME280;8527;49.740;6.604;2023-05-07T21:01:28;100027.19;;;16.19;100.00
16821;BME280;8527;49.740;6.604;2023-05-07T21:06:26;100028.66;;;16.22;99.84
16821;BME280;8527;49.740;6.604;2023-05-07T21:11:26;100036.25;;;16.18;100.00
16821;BME280;8527;49.740;6.604;2023-05-07T21:16:24;100039.28;;;16.08;100.00
16821;BME280;8527;49.740;6.604;2023-05-07T21:21:25;100040.84;;;16.31;100.00
16821;BME280;8527;49.740;6.604;2023-05-07T21:26:24;100042.31;;;16.40;100.00
16821;BME280;8527;49.740;6.604;2023-05-07T21:31:25;100043.22;;;16.12;100.00
16821;BME280;8527;49.740;6.604;2023-05-07T21:36:33;100035.88;;;16.28;99.87
16821;BME280;8527;49.740;6.604;2023-05-07T21:41:31;100039.81;;;16.32;99.96
16821;BME280;8527;49.740;6.604;2023-05-07T21:46:30;100034.66;;;15.95;100.00
16821;BME280;8527;49.740;6.604;2023-05-07T21:51:35;100031.31;;;16.22;100.00
16821;BME280;8527;49.740;6.604;2023-05-07T21:56:35;100028.06;;;16.26;99.86
16821;BME280;8527;49.740;6.604;2023-05-07T22:01:35;100026.22;;;16.40;98.87
16821;BME280;8527;49.740;6.604;2023-05-07T22:06:36;100023.94;;;16.30;99.89
16821;BME280;8527;49.740;6.604;2023-05-07T22:11:34;100021.91;;;16.39;99.61
16821;BME280;8527;49.740;6.604;2023-05-07T22:16:32;100031.84;;;16.45;98.71
16821;BME280;8527;49.740;6.604;2023-05-07T22:21:31;100028.94;;;16.47;98.95
16821;BME280;8527;49.740;6.604;2023-05-07T22:26:32;100021.13;;;16.45;98.74
16821;BME280;8527;49.740;6.604;2023-05-07T22:31:30;100033.66;;;16.38;97.81
16821;BME280;8527;49.740;6.604;2023-05-07T22:36:29;100027.03;;;16.27;99.08
16821;BME280;8527;49.740;6.604;2023-05-07T22:41:28;100031.13;;;16.30;98.91
16821;BME280;8527;49.740;6.604;2023-05-07T22:46:29;100026.81;;;16.29;98.58
16821;BME280;8527;49.740;6.604;2023-05-07T22:51:27;100035.88;;;16.28;98.52
16821;BME280;8527;49.740;6.604;2023-05-07T22:56:26;100030.09;;;16.24;97.92
16821;BME280;8527;49.740;6.604;2023-05-07T23:01:29;100030.47;;;16.21;97.60
16821;BME280;8527;49.740;6.604;2023-05-07T23:06:30;100029.22;;;16.17;98.86
16821;BME280;8527;49.740;6.604;2023-05-07T23:11:28;100020.63;;;16.22;98.93
16821;BME280;8527;49.740;6.604;2023-05-07T23:16:29;100026.41;;;16.25;96.94
16821;BME280;8527;49.740;6.604;2023-05-07T23:21:28;100015.66;;;16.19;97.19
16821;BME280;8527;49.740;6.604;2023-05-07T23:26:26;100013.19;;;16.24;97.34
16821;BME280;8527;49.740;6.604;2023-05-07T23:31:25;100012.88;;;16.05;98.43
16821;BME280;8527;49.740;6.604;2023-05-07T23:36:26;100004.06;;;16.05;99.87
16821;BME280;8527;49.740;6.604;2023-05-07T23:41:26;100005.50;;;16.00;97.60
16821;BME280;8527;49.740;6.604;2023-05-07T23:46:25;100012.28;;;16.03;97.44
16821;BME280;8527;49.740;6.604;2023-05-07T23:51:26;100025.03;;;16.01;98.25
16821;BME280;8527;49.740;6.604;2023-05-07T23:56:27;100025.06;;;16.08;98.41
